Flight Track Log - Related Links

Times and Time Zones

All times are in EDT time to prevent confusion due to time zone crossing. See the GJS6221 flight status page for this flight to view local times or setup timezone preferences in your user account.

Time Position Orientation Groundspeed Altitude Reporting Facility
EDT Latitude Longitude Course Direction KTS MPH feet Rate Location/Type
Mon 04:14:02 PM 44.3428 -73.1194 195° South 242 278 6,900  Level Boston Center
Mon 04:15:02 PM 44.2675 -73.1503 196° South 272 313 10,000 2,500 Climbing Boston Center
Mon 04:17:02 PM 44.0983 -73.2264 198° South 327 376 14,400 2,150 Climbing Boston Center
Mon 04:18:00 PM 43.9025 -73.3657 196° South  Level FlightAware Approximate
Mon 04:19:00 PM 43.8083 -73.4013 195° South  Level FlightAware Approximate
Mon 04:19:02 PM 43.9039 -73.3103 197° South 365 420 18,600  Level Boston Center
Mon 04:20:02 PM 43.8014 -73.3547 197° South 376 433 20,600 1,700 Climbing Boston Center
Mon 04:21:02 PM 43.6947 -73.4019 198° South 399 459 22,000 700 Climbing Boston Center
Mon 04:22:02 PM 43.5775 -73.4517 197° South 417 480 22,000  Level Boston Center
Mon 04:23:02 PM 43.4833 -73.4931 198° South 429 494 22,000  Level Boston Center
Mon 04:24:02 PM 43.3453 -73.5506 197° South 441 507 22,000  Level Boston Center
Mon 04:25:02 PM 43.2261 -73.5997 197° South 441 507 22,000  Level Boston Center
Mon 04:26:02 PM 43.1067 -73.6544 198° South 447 514 22,000  Level Boston Center
Mon 04:27:02 PM 42.9853 -73.7031 196° South 447 514 22,000  Level Boston Center
Mon 04:29:02 PM 42.7486 -73.7972 196° South 452 520 22,000 -400 Level Boston Center
Mon 04:31:00 PM 42.5461 -73.7504 184° South  Level FlightAware Approximate
Mon 04:32:02 PM 42.3889 -73.7331 184° South 445 512 20,000  Level Boston Center
Mon 04:33:02 PM 42.2703 -73.7111 172° South 434 499 19,000 -909 Descending Boston Center
Mon 04:34:14 PM 42.1831 -73.6869 168° South 391 450 18,000 -313 Descending Boston Center
Mon 04:36:14 PM 41.9681 -73.7272 188° South 339 390 18,000  Level Boston Center
Mon 04:37:14 PM 41.8822 -73.7533 193° South 339 390 18,000 -1,062 Level Boston Center
Mon 04:39:00 PM 41.7040 -73.7953 179° South  Level FlightAware Approximate
Mon 04:40:00 PM 41.6167 -73.8333 179° South 341 392 14,000  Level New York TRACON
Mon 04:41:00 PM 41.5333 -73.8500 189° South 311 358 12,300 -1,600 Descending New York TRACON
Mon 04:42:00 PM 41.4500 -73.8833 197° South 285 328 10,800 -1,381 Descending New York TRACON
Mon 04:43:06 PM 41.3833 -73.8333 151° Southeast 277 319 9,400 -968 Descending New York TRACON
Mon 04:45:06 PM 41.2500 -73.7167 147° Southeast 276 318 7,800 -900 Descending New York TRACON
Mon 04:46:06 PM 41.1833 -73.6667 151° Southeast 275 316 6,700 -1,316 Descending New York TRACON
Mon 04:47:00 PM 41.1333 -73.6167 143° Southeast 270 311 5,300 -1,350 Descending New York TRACON
Mon 04:48:06 PM 41.0667 -73.6333 191° South 253 291 4,000 -619 Descending New York TRACON
Mon 04:49:06 PM 41.0167 -73.6833 217° Southwest 192 221 4,000  Level New York TRACON
Mon 04:50:06 PM 40.9667 -73.7167 207° Southwest 178 205 4,000 -100 Level New York TRACON
Mon 04:51:06 PM 40.9500 -73.7500 237° Southwest 175 201 3,800 -500 Descending New York TRACON
Mon 04:52:06 PM 40.9000 -73.7833 207° Southwest 155 178 3,000 -950 Descending New York TRACON
Mon 04:53:06 PM 40.8667 -73.8000 201° Southwest 139 160 1,900 -850 Descending New York TRACON
Mon 04:54:06 PM 40.8333 -73.8333 217° Southwest 127 146 1,300 -650 Descending New York TRACON
Mon 04:55:06 PM 40.8000 -73.8500 201° Southwest 135 155 600 -700 Descending New York TRACON
Mon 04:57:00 PM 40.7667 -73.8667 180° South  Level FlightAware Approximate
Mon 05:04:00 PM 40.7772 -73.8726 180° South  Level Estimated

Login

Don't have an account? Register now (free) for customized features, flight alerts, and more!